Time;durP1;ratioP1;P1;durP2;ratioP2;P2;SDS_P1;SDS_P2;PMS_P1;PMS_P2;Temp;Humidity;BMP_temperature;BMP_pressure;BME280_temperature;BME280_humidity;BME280_pressure;Samples;Min_cycle;Max_cycle;Signal;HPM_P1;HPM_P2
2022/05/08 00:00:09;;;;;;;;;9.75;9.75;;;26.52;98068.73;;;;117115;1192;25768;-58
2022/05/08 00:03:01;;;;;;;;;10.33;10.33;;;26.59;98067.81;;;;117031;1191;25217;-59
2022/05/08 00:05:36;;;;;;;;;14.00;10.75;;;26.59;98078.02;;;;117125;1193;25684;-56
2022/05/08 00:08:10;;;;;;;;;14.75;13.25;;;26.55;98078.84;;;;117090;1193;24724;-58
2022/05/08 00:10:48;;;;;;;;;8.50;8.50;;;26.50;98071.93;;;;117128;1191;25245;-58
2022/05/08 00:13:16;;;;;;;;;11.75;11.75;;;26.49;98065.48;;;;117021;1193;25228;-56
2022/05/08 00:15:46;;;;;;;;;16.00;14.33;;;26.45;98063.29;;;;117040;1193;24954;-58
2022/05/08 00:18:16;;;;;;;;;14.75;12.50;;;26.41;98064.98;;;;117062;1192;25091;-60
2022/05/08 00:20:47;;;;;;;;;12.50;12.00;;;26.38;98066.34;;;;117098;1193;25040;-58
2022/05/08 00:23:18;;;;;;;;;15.25;11.50;;;26.38;98064.29;;;;117069;1193;25239;-59
2022/05/08 00:25:46;;;;;;;;;11.67;11.67;;;26.38;98062.61;;;;117067;1192;24810;-57
2022/05/08 00:28:16;;;;;;;;;13.67;9.67;;;26.36;98058.70;;;;117100;1191;25295;-58
2022/05/08 00:30:47;;;;;;;;;15.75;11.00;;;26.36;98058.64;;;;117071;1192;26339;-60
2022/05/08 00:33:16;;;;;;;;;10.25;9.00;;;26.35;98057.14;;;;117021;1192;25802;-56
2022/05/08 00:35:45;;;;;;;;;13.75;12.75;;;26.35;98058.09;;;;117100;1192;25031;-58
2022/05/08 00:38:13;;;;;;;;;14.25;11.25;;;26.30;98057.72;;;;117088;1193;25699;-59
2022/05/08 00:40:43;;;;;;;;;10.00;9.00;;;26.31;98052.80;;;;117070;1193;25295;-59
2022/05/08 00:43:26;;;;;;;;;12.00;9.33;;;26.31;98050.62;;;;117111;1192;26561;-59
2022/05/08 00:45:58;;;;;;;;;10.00;9.00;;;26.35;98052.04;;;;117161;1191;25159;-57
2022/05/08 00:48:29;;;;;;;;;8.50;8.50;;;26.36;98053.66;;;;117051;1192;25670;-58
2022/05/08 00:51:04;;;;;;;;;12.25;11.50;;;26.36;98054.56;;;;117135;1192;25603;-60
2022/05/08 00:53:36;;;;;;;;;11.50;10.25;;;26.38;98046.69;;;;117014;1192;25698;-56
2022/05/08 00:56:08;;;;;;;;;14.75;12.25;;;26.37;98040.34;;;;117168;1193;26523;-56
2022/05/08 00:58:37;;;;;;;;;12.50;10.00;;;26.40;98044.83;;;;117114;1192;25484;-57
2022/05/08 01:01:09;;;;;;;;;12.75;10.50;;;26.38;98050.39;;;;117158;1192;25211;-60
2022/05/08 01:03:38;;;;;;;;;11.33;11.33;;;26.39;98049.31;;;;117077;1191;25167;-56
2022/05/08 01:06:11;;;;;;;;;9.75;9.25;;;26.35;98050.18;;;;117184;1192;25603;-58
2022/05/08 01:08:43;;;;;;;;;12.33;12.33;;;26.36;98048.87;;;;117086;1192;25223;-57
2022/05/08 01:11:11;;;;;;;;;19.00;15.75;;;26.33;98046.03;;;;117119;1193;25358;-56
2022/05/08 01:13:42;;;;;;;;;11.75;9.50;;;26.33;98044.83;;;;117096;1191;25254;-58
2022/05/08 01:16:16;;;;;;;;;11.50;10.50;;;26.31;98046.65;;;;117169;1193;25522;-57
2022/05/08 01:18:45;;;;;;;;;15.00;13.67;;;26.31;98045.94;;;;117138;1193;24937;-58
2022/05/08 01:21:15;;;;;;;;;14.50;11.00;;;26.31;98050.56;;;;117107;1191;25475;-60
2022/05/08 01:23:44;;;;;;;;;12.67;11.00;;;26.29;98050.53;;;;117109;1192;25392;-59
2022/05/08 01:26:19;;;;;;;;;14.67;11.33;;;26.28;98054.64;;;;117198;1192;25034;-58
2022/05/08 01:28:52;;;;;;;;;10.33;10.00;;;26.32;98054.50;;;;117030;1192;25324;-59
2022/05/08 01:31:20;;;;;;;;;14.33;12.00;;;26.30;98053.30;;;;117361;1192;25711;-58
2022/05/08 01:33:49;;;;;;;;;8.50;8.50;;;26.37;98049.83;;;;117223;1193;25432;-59
2022/05/08 01:36:18;;;;;;;;;9.50;8.75;;;26.38;98052.45;;;;117186;1192;24969;-58
2022/05/08 01:38:50;;;;;;;;;10.00;9.50;;;26.36;98053.94;;;;117175;1193;25343;-58
2022/05/08 01:41:21;;;;;;;;;14.00;11.33;;;26.35;98056.15;;;;117105;1191;25781;-57
2022/05/08 01:43:49;;;;;;;;;8.75;8.25;;;26.32;98055.92;;;;117087;1193;25187;-58
2022/05/08 01:46:20;;;;;;;;;11.25;9.75;;;26.29;98058.98;;;;117077;1191;25445;-57
2022/05/08 01:48:49;;;;;;;;;9.75;9.75;;;26.25;98059.77;;;;117061;1192;24786;-59
2022/05/08 01:51:20;;;;;;;;;9.00;8.67;;;26.24;98060.51;;;;117125;1193;25758;-58
2022/05/08 01:53:50;;;;;;;;;14.33;10.33;;;26.24;98060.62;;;;117064;1192;25172;-57
2022/05/08 01:56:19;;;;;;;;;11.33;11.33;;;26.25;98057.98;;;;117093;1191;25640;-60
2022/05/08 01:58:53;;;;;;;;;13.75;11.75;;;26.23;98054.41;;;;117096;1192;25445;-57
2022/05/08 02:01:24;;;;;;;;;15.50;11.75;;;26.24;98053.85;;;;117083;1193;25580;-59
2022/05/08 02:03:53;;;;;;;;;10.25;9.50;;;26.22;98054.73;;;;117140;1193;25373;-59
2022/05/08 02:06:25;;;;;;;;;13.75;11.75;;;26.23;98054.81;;;;117078;1193;24833;-60
2022/05/08 02:08:55;;;;;;;;;5.25;5.25;;;26.22;98058.73;;;;117090;1192;25652;-58
2022/05/08 02:11:24;;;;;;;;;9.00;8.75;;;26.21;98061.30;;;;117137;1192;25403;-56
2022/05/08 02:13:54;;;;;;;;;11.00;9.75;;;26.23;98059.36;;;;117093;1193;25695;-58
2022/05/08 02:16:24;;;;;;;;;9.50;8.75;;;26.23;98065.05;;;;117068;1193;25463;-58
2022/05/08 02:18:54;;;;;;;;;14.50;10.75;;;26.20;98061.05;;;;117097;1192;25287;-56
2022/05/08 02:21:27;;;;;;;;;8.50;8.50;;;26.20;98064.86;;;;117059;1193;25000;-58
2022/05/08 02:23:59;;;;;;;;;11.67;9.33;;;26.20;98067.90;;;;117122;1192;25118;-58
2022/05/08 02:26:28;;;;;;;;;11.50;9.25;;;26.19;98072.29;;;;117067;1193;24884;-59
2022/05/08 02:28:56;;;;;;;;;10.75;10.75;;;26.18;98074.80;;;;117123;1193;25262;-57
2022/05/08 02:31:25;;;;;;;;;10.50;10.00;;;26.16;98075.66;;;;117084;1193;25223;-58
2022/05/08 02:33:53;;;;;;;;;12.00;11.33;;;26.16;98075.19;;;;117157;1193;25035;-56
2022/05/08 02:36:24;;;;;;;;;11.33;10.67;;;26.14;98076.66;;;;117047;1193;26451;-59
2022/05/08 02:38:56;;;;;;;;;11.33;9.67;;;26.14;98075.94;;;;117076;1192;25583;-57
2022/05/08 02:41:28;;;;;;;;;9.50;9.50;;;26.14;98073.71;;;;117094;1193;25061;-57
2022/05/08 02:43:59;;;;;;;;;11.00;9.50;;;26.16;98072.66;;;;117159;1193;25314;-57
2022/05/08 02:46:29;;;;;;;;;12.33;9.33;;;26.18;98074.39;;;;117026;1193;25467;-59
2022/05/08 02:48:57;;;;;;;;;11.00;10.25;;;26.17;98074.55;;;;117083;1192;25135;-60
2022/05/08 02:51:28;;;;;;;;;10.50;8.25;;;26.16;98074.38;;;;117079;1193;24968;-60
2022/05/08 02:53:57;;;;;;;;;15.50;9.50;;;26.15;98074.89;;;;117013;1192;25036;-57
2022/05/08 02:59:15;;;;;;;;;12.75;10.25;;;26.12;98074.15;;;;117045;1192;25172;-59
2022/05/08 03:01:44;;;;;;;;;12.50;11.00;;;26.10;98077.27;;;;117125;1192;25090;-58
2022/05/08 03:04:15;;;;;;;;;11.75;9.50;;;26.14;98078.82;;;;117126;1191;24970;-57
2022/05/08 03:06:47;;;;;;;;;9.67;8.67;;;26.13;98081.38;;;;117113;1191;25366;-59
2022/05/08 03:09:16;;;;;;;;;8.00;8.00;;;26.12;98079.10;;;;117119;1193;25164;-57
2022/05/08 03:11:46;;;;;;;;;12.50;9.75;;;26.13;98077.79;;;;117074;1193;25540;-60
2022/05/08 03:14:14;;;;;;;;;7.50;6.75;;;26.11;98076.59;;;;117058;1193;26821;-56
2022/05/08 03:16:45;;;;;;;;;10.00;10.00;;;26.10;98076.38;;;;117028;1192;25605;-58
2022/05/08 03:19:19;;;;;;;;;11.00;8.50;;;26.10;98080.20;;;;117114;1192;25496;-58
2022/05/08 03:21:55;;;;;;;;;11.25;9.00;;;26.10;98080.11;;;;117145;1193;25676;-57
2022/05/08 03:24:27;;;;;;;;;11.00;8.25;;;26.14;98078.41;;;;117130;1192;25653;-59
2022/05/08 03:26:59;;;;;;;;;12.50;9.50;;;26.15;98079.39;;;;117178;1193;24737;-58
2022/05/08 03:29:27;;;;;;;;;13.50;10.25;;;26.16;98084.94;;;;117080;1192;25637;-57
2022/05/08 03:31:58;;;;;;;;;14.67;9.33;;;26.15;98089.71;;;;117127;1192;25166;-60
2022/05/08 03:34:27;;;;;;;;;11.75;10.25;;;26.15;98092.81;;;;117122;1193;25118;-58
2022/05/08 03:36:54;;;;;;;;;10.00;9.33;;;26.14;98094.92;;;;117000;1192;25766;-58
2022/05/08 03:39:24;;;;;;;;;9.50;8.00;;;26.11;98096.54;;;;117040;1193;25660;-57
2022/05/08 03:41:53;;;;;;;;;11.25;10.75;;;26.11;98097.48;;;;117028;1192;26020;-56
2022/05/08 03:44:25;;;;;;;;;9.00;8.33;;;26.09;98098.58;;;;117088;1193;25775;-56
2022/05/08 03:46:53;;;;;;;;;9.75;9.25;;;26.11;98099.96;;;;117080;1193;25714;-59
2022/05/08 03:49:24;;;;;;;;;12.00;9.33;;;26.11;98104.60;;;;117061;1192;24884;-56
2022/05/08 03:51:59;;;;;;;;;8.00;8.00;;;26.10;98104.11;;;;117030;1192;25019;-58
2022/05/08 03:54:27;;;;;;;;;10.75;10.25;;;26.10;98106.13;;;;117124;1193;25234;-59
2022/05/08 03:57:00;;;;;;;;;7.75;7.75;;;26.11;98108.34;;;;117143;1193;25789;-58
2022/05/08 03:59:29;;;;;;;;;8.50;8.00;;;26.13;98112.30;;;;117075;1193;25649;-61
2022/05/08 04:02:02;;;;;;;;;11.75;9.50;;;26.11;98116.02;;;;117175;1193;25087;-60
2022/05/08 04:04:33;;;;;;;;;8.00;7.00;;;26.15;98117.44;;;;117115;1191;24971;-60
2022/05/08 04:07:06;;;;;;;;;9.50;9.50;;;26.15;98115.63;;;;117105;1193;24887;-59
2022/05/08 04:09:37;;;;;;;;;11.25;10.50;;;26.15;98114.33;;;;117067;1192;25320;-59
2022/05/08 04:12:05;;;;;;;;;8.50;8.50;;;26.14;98111.89;;;;117055;1193;25212;-56
2022/05/08 04:14:37;;;;;;;;;10.25;10.25;;;26.11;98113.19;;;;117216;1191;25031;-58
2022/05/08 04:17:07;;;;;;;;;10.25;10.25;;;26.14;98112.47;;;;117204;1193;25224;-57
2022/05/08 04:19:38;;;;;;;;;8.75;8.25;;;26.16;98113.64;;;;117055;1193;25000;-58
2022/05/08 04:24:57;;;;;;;;;8.25;7.00;;;26.13;98118.37;;;;117121;1192;25419;-58
2022/05/08 04:27:27;;;;;;;;;10.25;9.75;;;26.12;98117.95;;;;117069;1193;25424;-57
2022/05/08 04:29:57;;;;;;;;;13.00;10.50;;;26.10;98119.33;;;;117087;1193;24980;-57
2022/05/08 04:32:29;;;;;;;;;10.75;10.25;;;26.12;98115.39;;;;117062;1193;26774;-59
2022/05/08 04:34:59;;;;;;;;;13.00;10.00;;;26.13;98120.66;;;;117029;1192;25407;-59
2022/05/08 04:37:33;;;;;;;;;10.00;8.50;;;26.15;98118.81;;;;117094;1191;24949;-57
2022/05/08 04:40:03;;;;;;;;;12.25;10.75;;;26.17;98114.96;;;;117062;1193;24745;-59
2022/05/08 04:42:33;;;;;;;;;7.50;7.00;;;26.16;98115.59;;;;117153;1192;24735;-57
2022/05/08 04:45:04;;;;;;;;;11.25;8.50;;;26.15;98117.30;;;;117109;1191;25605;-55
2022/05/08 04:47:36;;;;;;;;;9.50;8.25;;;26.15;98117.67;;;;117187;1191;25376;-57
2022/05/08 04:50:07;;;;;;;;;12.00;9.00;;;26.20;98121.04;;;;117082;1192;25244;-60
2022/05/08 04:52:38;;;;;;;;;11.00;11.00;;;26.18;98124.23;;;;117082;1193;25113;-56
2022/05/08 04:55:12;;;;;;;;;4.75;4.00;;;26.16;98128.87;;;;117212;1193;25555;-56
2022/05/08 04:57:43;;;;;;;;;9.25;9.25;;;26.20;98131.66;;;;117121;1193;25146;-61
2022/05/08 05:00:16;;;;;;;;;10.50;9.75;;;26.20;98130.32;;;;117048;1193;25471;-57
2022/05/08 05:02:46;;;;;;;;;11.50;10.50;;;26.15;98132.23;;;;117044;1192;25688;-59
2022/05/08 05:05:22;;;;;;;;;10.50;10.50;;;26.18;98132.55;;;;117135;1193;25001;-60
2022/05/08 05:07:51;;;;;;;;;9.75;9.75;;;26.15;98134.26;;;;117191;1191;25173;-60
2022/05/08 05:10:20;;;;;;;;;7.50;7.50;;;26.24;98133.48;;;;117123;1193;25309;-63
2022/05/08 05:12:47;;;;;;;;;10.67;9.33;;;26.17;98135.90;;;;117107;1192;25774;-57
2022/05/08 05:15:18;;;;;;;;;18.00;10.00;;;26.11;98137.95;;;;117114;1193;25912;-58
2022/05/08 05:17:49;;;;;;;;;8.25;6.75;;;26.20;98138.19;;;;117188;1193;25259;-60
2022/05/08 05:20:18;;;;;;;;;12.75;12.00;;;26.28;98141.35;;;;117087;1193;25669;-59
2022/05/08 05:22:46;;;;;;;;;18.33;14.67;;;26.30;98143.35;;;;117052;1192;25697;-59
2022/05/08 05:25:19;;;;;;;;;9.50;9.50;;;26.38;98146.36;;;;117096;1192;25661;-59
2022/05/08 05:27:48;;;;;;;;;11.50;9.00;;;26.40;98148.11;;;;117077;1193;25054;-59
2022/05/08 05:30:16;;;;;;;;;11.33;10.00;;;26.43;98150.35;;;;117039;1193;25243;-59
2022/05/08 05:32:44;;;;;;;;;9.75;8.75;;;26.39;98151.08;;;;117084;1191;25678;-59
2022/05/08 05:35:14;;;;;;;;;10.25;10.25;;;26.33;98152.64;;;;117090;1193;25742;-60
2022/05/08 05:37:42;;;;;;;;;17.00;11.00;;;26.28;98157.73;;;;117079;1192;25800;-59
2022/05/08 05:40:11;;;;;;;;;16.33;15.67;;;26.23;98155.45;;;;117073;1191;25658;-59
2022/05/08 05:42:41;;;;;;;;;16.33;12.33;;;26.15;98157.55;;;;117120;1192;25624;-58
2022/05/08 05:45:16;;;;;;;;;9.50;8.00;;;26.11;98154.39;;;;117048;1193;25147;-59
2022/05/08 05:47:50;;;;;;;;;13.67;12.67;;;26.10;98152.84;;;;117097;1192;25210;-57
2022/05/08 05:50:23;;;;;;;;;16.25;15.00;;;26.04;98154.11;;;;117321;1192;25428;-57
2022/05/08 05:52:53;;;;;;;;;14.25;12.25;;;26.16;98155.65;;;;117051;1193;24969;-58
2022/05/08 05:55:22;;;;;;;;;17.50;16.50;;;26.15;98152.89;;;;117021;1193;25575;-57
2022/05/08 05:57:54;;;;;;;;;17.00;16.25;;;26.10;98152.14;;;;117110;1192;25514;-58
2022/05/08 06:00:27;;;;;;;;;16.50;15.50;;;26.05;98153.04;;;;117117;1192;25201;-58
2022/05/08 06:02:55;;;;;;;;;17.75;17.00;;;25.96;98156.39;;;;117133;1193;25120;-58
2022/05/08 06:05:23;;;;;;;;;21.75;16.50;;;26.05;98152.45;;;;117166;1192;25716;-58
2022/05/08 06:07:56;;;;;;;;;20.00;19.33;;;26.01;98157.48;;;;117048;1191;25175;-58
2022/05/08 06:10:29;;;;;;;;;20.67;17.67;;;26.01;98157.69;;;;117092;1193;25304;-60
2022/05/08 06:12:57;;;;;;;;;20.67;20.00;;;26.00;98157.70;;;;117151;1193;25406;-59
2022/05/08 06:15:31;;;;;;;;;30.33;25.00;;;25.99;98158.58;;;;117171;1192;25242;-58
2022/05/08 06:17:59;;;;;;;;;34.00;27.00;;;26.03;98156.96;;;;116995;1192;25250;-59
2022/05/08 06:20:38;;;;;;;;;28.25;26.00;;;26.01;98160.08;;;;117109;1192;25366;-57
2022/05/08 06:23:08;;;;;;;;;29.33;25.33;;;26.03;98158.02;;;;117072;1192;25335;-58
2022/05/08 06:25:41;;;;;;;;;23.00;22.00;;;26.03;98160.49;;;;117067;1192;25676;-60
2022/05/08 06:28:19;;;;;;;;;36.33;26.33;;;26.01;98159.27;;;;117160;1192;25788;-60
2022/05/08 06:30:49;;;;;;;;;32.50;28.00;;;25.80;98158.98;;;;117055;1193;25014;-58
2022/05/08 06:33:20;;;;;;;;;28.33;26.67;;;25.60;98159.32;;;;117106;1191;25284;-57
2022/05/08 06:35:47;;;;;;;;;28.00;24.00;;;25.54;98155.70;;;;117163;1191;25745;-56
2022/05/08 06:38:16;;;;;;;;;29.00;27.67;;;25.70;98157.20;;;;117153;1192;24821;-60
2022/05/08 06:40:45;;;;;;;;;27.33;22.33;;;25.78;98151.71;;;;117097;1191;25084;-58
2022/05/08 06:43:13;;;;;;;;;28.00;24.67;;;25.87;98154.42;;;;117117;1192;25102;-59
2022/05/08 06:45:43;;;;;;;;;25.00;23.00;;;25.92;98156.85;;;;117205;1193;25424;-58
2022/05/08 06:48:10;;;;;;;;;32.00;30.00;;;25.96;98156.90;;;;117180;1192;25092;-58
2022/05/08 06:50:38;;;;;;;;;38.50;29.50;;;26.04;98157.95;;;;117090;1193;25623;-58
2022/05/08 06:53:08;;;;;;;;;33.00;30.00;;;26.03;98159.35;;;;117131;1192;25769;-60
2022/05/08 06:55:37;;;;;;;;;38.33;27.33;;;26.03;98157.55;;;;117085;1192;25699;-58
2022/05/08 06:58:07;;;;;;;;;38.33;30.33;;;26.05;98156.69;;;;117090;1192;25515;-60
2022/05/08 07:03:25;;;;;;;;;45.67;32.00;;;26.04;98155.23;;;;117122;1192;25351;-57
2022/05/08 07:06:04;;;;;;;;;;;;;;;;;;;;;
2022/05/08 07:08:35;;;;;;;;;35.33;28.00;;;26.15;98157.38;;;;117059;1192;25128;-61
2022/05/08 07:11:03;;;;;;;;;37.33;34.67;;;26.15;98155.17;;;;117312;1193;25512;-62
2022/05/08 07:13:33;;;;;;;;;27.67;26.00;;;26.22;98152.81;;;;117367;1192;25474;-59
2022/05/08 07:16:03;;;;;;;;;36.50;29.50;;;26.28;98152.11;;;;117437;1193;25800;-59
2022/05/08 07:18:31;;;;;;;;;34.25;29.00;;;26.34;98148.17;;;;117498;1193;26499;-58
2022/05/08 07:20:59;;;;;;;;;32.75;25.25;;;26.43;98150.29;;;;117225;1192;25467;-57
2022/05/08 07:23:26;;;;;;;;;30.33;27.00;;;26.37;98149.12;;;;117220;1192;25228;-58
2022/05/08 07:25:54;;;;;;;;;37.00;30.00;;;26.31;98149.18;;;;117309;1193;25119;-58
2022/05/08 07:28:22;;;;;;;;;43.00;34.00;;;26.29;98149.68;;;;117312;1192;25326;-57
2022/05/08 07:30:50;;;;;;;;;44.00;37.00;;;26.30;98150.96;;;;117209;1193;25798;-61
2022/05/08 07:33:19;;;;;;;;;41.75;33.75;;;26.26;98148.64;;;;117265;1192;25329;-57
2022/05/08 07:38:34;;;;;;;;;36.00;30.00;;;26.23;98147.42;;;;117202;1191;25496;-58
2022/05/08 07:41:02;;;;;;;;;37.50;32.00;;;26.17;98145.80;;;;117186;1192;25218;-58
2022/05/08 07:43:30;;;;;;;;;31.00;28.00;;;26.13;98147.78;;;;117092;1192;25250;-61
2022/05/08 07:45:59;;;;;;;;;39.00;26.00;;;26.06;98146.02;;;;117107;1192;24711;-57
2022/05/08 07:48:27;;;;;;;;;32.50;26.50;;;25.99;98144.68;;;;117117;1193;25469;-60
2022/05/08 07:50:57;;;;;;;;;37.00;28.00;;;25.97;98145.17;;;;117066;1193;25005;-57
2022/05/08 07:53:29;;;;;;;;;38.00;29.50;;;25.94;98147.64;;;;117133;1193;25379;-58
2022/05/08 07:55:58;;;;;;;;;32.00;29.33;;;25.94;98148.34;;;;117093;1193;24734;-59
2022/05/08 07:58:33;;;;;;;;;38.00;29.00;;;25.88;98148.40;;;;117060;1193;25810;-60
2022/05/08 08:01:06;;;;;;;;;31.33;29.00;;;25.89;98150.56;;;;117083;1192;25053;-61
2022/05/08 08:03:34;;;;;;;;;29.75;25.50;;;25.93;98149.64;;;;117078;1193;25621;-60
2022/05/08 08:06:03;;;;;;;;;32.33;26.33;;;25.88;98149.47;;;;117129;1191;24841;-57
2022/05/08 08:08:36;;;;;;;;;40.00;29.25;;;25.89;98150.70;;;;117024;1193;25103;-58
2022/05/08 08:11:05;;;;;;;;;28.50;23.00;;;25.88;98152.88;;;;117111;1192;25529;-60
2022/05/08 08:13:34;;;;;;;;;31.00;25.67;;;25.89;98150.35;;;;117179;1191;25536;-61
2022/05/08 08:16:03;;;;;;;;;30.00;24.67;;;25.89;98153.77;;;;117155;1193;25654;-59
2022/05/08 08:18:31;;;;;;;;;27.33;26.00;;;25.87;98152.23;;;;117090;1193;25204;-60
2022/05/08 08:21:06;;;;;;;;;30.67;26.67;;;25.89;98151.05;;;;117079;1193;24981;-57
2022/05/08 08:23:34;;;;;;;;;28.00;24.50;;;25.90;98153.42;;;;117115;1192;25747;-55
2022/05/08 08:26:01;;;;;;;;;21.00;21.00;;;25.89;98151.77;;;;117107;1193;25710;-58
2022/05/08 08:28:29;;;;;;;;;23.67;22.67;;;25.89;98150.23;;;;116878;1193;25348;-59
2022/05/08 08:30:57;;;;;;;;;23.00;22.33;;;25.86;98148.30;;;;117039;1192;25112;-60
2022/05/08 08:33:26;;;;;;;;;27.67;23.00;;;25.85;98149.12;;;;117095;1193;25663;-61
2022/05/08 08:35:55;;;;;;;;;31.33;25.67;;;25.85;98146.46;;;;117117;1192;25193;-58
2022/05/08 08:38:23;;;;;;;;;25.67;23.33;;;25.84;98146.30;;;;117107;1191;25660;-58
2022/05/08 08:40:53;;;;;;;;;27.00;25.00;;;25.83;98144.54;;;;117099;1192;25238;-60
2022/05/08 08:43:21;;;;;;;;;29.00;24.75;;;25.83;98142.91;;;;117107;1193;25273;-59
2022/05/08 08:48:48;;;;;;;;;23.50;21.25;;;25.92;98148.15;;;;117043;1193;25555;-60
2022/05/08 08:51:16;;;;;;;;;24.67;22.00;;;25.97;98143.94;;;;117049;1193;25604;-59
2022/05/08 08:53:44;;;;;;;;;28.25;25.50;;;25.91;98146.45;;;;117098;1193;25565;-59
2022/05/08 08:56:12;;;;;;;;;22.50;19.00;;;25.88;98144.71;;;;117101;1193;24930;-59
2022/05/08 08:58:40;;;;;;;;;19.67;17.00;;;25.86;98142.46;;;;117095;1192;25191;-60
2022/05/08 09:01:08;;;;;;;;;24.67;24.00;;;25.86;98141.86;;;;117140;1192;24714;-57
2022/05/08 09:03:36;;;;;;;;;24.00;21.00;;;25.87;98140.06;;;;117113;1193;24851;-57
2022/05/08 09:06:08;;;;;;;;;28.67;23.33;;;25.87;98139.38;;;;117091;1193;25761;-61
2022/05/08 09:08:36;;;;;;;;;28.67;27.00;;;25.90;98140.20;;;;117084;1192;24804;-61
2022/05/08 09:11:10;;;;;;;;;23.00;19.50;;;25.93;98142.79;;;;117045;1193;25481;-60
2022/05/08 09:13:50;;;;;;;;;26.75;23.75;;;25.93;98139.95;;;;117064;1193;25919;-58
2022/05/08 09:16:18;;;;;;;;;23.67;22.67;;;25.97;98141.73;;;;117072;1192;25700;-60
2022/05/08 09:18:48;;;;;;;;;29.50;26.00;;;25.99;98139.55;;;;117104;1192;25384;-60
2022/05/08 09:24:14;;;;;;;;;17.33;16.33;;;25.99;98136.17;;;;117058;1192;25111;-61
2022/05/08 09:26:42;;;;;;;;;24.50;21.00;;;25.97;98137.52;;;;116946;1193;25086;-58
2022/05/08 09:29:22;;;;;;;;;23.25;21.75;;;25.97;98138.20;;;;117056;1193;24828;-60
2022/05/08 09:31:50;;;;;;;;;30.00;26.50;;;26.00;98138.11;;;;117042;1193;25374;-58
2022/05/08 09:34:18;;;;;;;;;25.25;22.25;;;26.04;98137.45;;;;116990;1193;24778;-58
2022/05/08 09:36:47;;;;;;;;;19.50;18.00;;;26.03;98136.19;;;;116959;1193;25268;-61
2022/05/08 09:39:19;;;;;;;;;24.00;21.33;;;26.01;98135.02;;;;117014;1192;25804;-58
2022/05/08 09:41:47;;;;;;;;;28.00;24.00;;;25.98;98134.56;;;;117135;1192;24879;-59
2022/05/08 09:44:16;;;;;;;;;32.25;28.50;;;25.99;98131.13;;;;117039;1193;25604;-62
2022/05/08 09:46:46;;;;;;;;;29.33;26.33;;;25.98;98128.68;;;;117039;1192;25145;-58
2022/05/08 09:49:19;;;;;;;;;24.50;22.50;;;25.98;98127.77;;;;117111;1192;24884;-59
2022/05/08 09:51:48;;;;;;;;;28.00;25.67;;;26.01;98124.77;;;;117057;1193;25152;-61
2022/05/08 09:54:18;;;;;;;;;24.00;22.00;;;26.02;98120.16;;;;117007;1193;25032;-60
2022/05/08 09:56:47;;;;;;;;;25.25;23.50;;;26.03;98122.81;;;;117041;1193;24789;-57
2022/05/08 09:59:19;;;;;;;;;24.50;20.75;;;26.03;98121.58;;;;117085;1193;26253;-62
2022/05/08 10:01:48;;;;;;;;;28.00;25.50;;;26.04;98119.86;;;;117182;1193;25305;-60
2022/05/08 10:04:16;;;;;;;;;31.33;22.67;;;26.07;98114.66;;;;117064;1193;24858;-60
2022/05/08 10:06:44;;;;;;;;;26.00;26.00;;;26.05;98113.31;;;;117038;1192;25172;-59
2022/05/08 10:14:49;;;;;;;;;33.00;25.00;;;26.01;98110.44;;;;117016;1193;24974;-60
2022/05/08 10:17:32;;;;;;;;;24.00;21.67;;;26.01;98111.14;;;;117106;1193;25679;-62
2022/05/08 10:20:00;;;;;;;;;25.25;24.75;;;26.02;98105.20;;;;117091;1193;25312;-59
2022/05/08 10:22:48;;;;;;;;;21.00;17.67;;;26.02;98104.95;;;;117075;1193;25716;-60
2022/05/08 10:25:17;;;;;;;;;25.00;22.50;;;26.09;98105.48;;;;117092;1193;25758;-58
2022/05/08 10:28:05;;;;;;;;;23.00;21.75;;;26.10;98104.48;;;;117069;1193;25347;-59
2022/05/08 10:30:34;;;;;;;;;25.75;24.00;;;26.09;98103.17;;;;117015;1193;25232;-61
2022/05/08 10:33:06;;;;;;;;;19.25;18.75;;;26.09;98098.86;;;;117106;1193;25279;-59
2022/05/08 10:35:37;;;;;;;;;23.25;20.25;;;26.12;98098.22;;;;117147;1193;25383;-57
2022/05/08 10:38:07;;;;;;;;;18.00;17.33;;;26.17;98099.80;;;;117184;1191;24840;-60
2022/05/08 10:40:37;;;;;;;;;39.50;35.50;;;26.21;98095.89;;;;117134;1192;24744;-61
2022/05/08 10:43:10;;;;;;;;;29.00;25.33;;;26.24;98095.05;;;;117109;1192;24858;-62
2022/05/08 10:45:43;;;;;;;;;32.00;29.33;;;26.26;98094.59;;;;117015;1193;24782;-61
2022/05/08 10:48:17;;;;;;;;;36.67;31.33;;;26.26;98089.55;;;;117143;1193;24810;-55
2022/05/08 10:50:54;;;;;;;;;33.00;25.00;;;26.28;98085.64;;;;117181;1193;25303;-60
2022/05/08 10:53:36;;;;;;;;;31.25;26.75;;;26.33;98085.33;;;;117082;1193;25651;-59
2022/05/08 10:56:09;;;;;;;;;30.00;28.00;;;26.39;98084.48;;;;117072;1193;24974;-58
2022/05/08 10:58:52;;;;;;;;;33.50;29.00;;;26.40;98080.14;;;;117101;1192;24841;-60
2022/05/08 11:01:20;;;;;;;;;22.50;20.50;;;26.44;98074.52;;;;117148;1194;25356;-62
2022/05/08 11:03:48;;;;;;;;;28.67;24.33;;;26.52;98076.29;;;;117193;1192;24953;-60
2022/05/08 11:06:22;;;;;;;;;27.75;25.00;;;26.50;98077.62;;;;117067;1193;25801;-56
2022/05/08 11:08:59;;;;;;;;;30.50;25.25;;;26.47;98073.45;;;;117142;1193;25534;-64
2022/05/08 11:11:29;;;;;;;;;31.00;29.67;;;26.46;98069.02;;;;117062;1193;25051;-60
2022/05/08 11:13:58;;;;;;;;;27.25;23.75;;;26.48;98066.30;;;;117101;1193;24740;-65
2022/05/08 11:16:36;;;;;;;;;31.67;26.00;;;26.46;98063.31;;;;117093;1193;24905;-62
2022/05/08 11:19:06;;;;;;;;;36.25;31.25;;;26.48;98062.38;;;;117150;1193;24733;-66
2022/05/08 11:21:35;;;;;;;;;28.67;24.00;;;26.48;98058.35;;;;117137;1193;25419;-64
2022/05/08 11:24:03;;;;;;;;;27.67;25.67;;;26.47;98050.05;;;;117112;1194;25393;-64
2022/05/08 11:26:34;;;;;;;;;30.00;28.00;;;26.44;98048.50;;;;117261;1193;25340;-67
2022/05/08 11:29:04;;;;;;;;;29.00;26.33;;;26.47;98044.65;;;;117091;1193;24944;-60
2022/05/08 11:31:35;;;;;;;;;29.00;27.00;;;26.43;98040.70;;;;117134;1193;25219;-60
2022/05/08 11:37:04;;;;;;;;;31.75;28.25;;;26.46;98036.36;;;;117229;1193;25231;-64
2022/05/08 11:39:32;;;;;;;;;28.00;24.67;;;26.47;98035.30;;;;117111;1193;25051;-62
2022/05/08 11:42:00;;;;;;;;;31.00;28.00;;;26.51;98033.08;;;;117013;1193;25661;-58
2022/05/08 11:44:28;;;;;;;;;37.00;27.67;;;26.49;98031.77;;;;117082;1192;25524;-59
2022/05/08 11:46:57;;;;;;;;;31.33;28.00;;;26.46;98026.02;;;;117063;1193;25561;-68
2022/05/08 11:49:30;;;;;;;;;31.33;28.00;;;26.46;98026.20;;;;117063;1194;25176;-65
2022/05/08 11:52:01;;;;;;;;;28.00;23.00;;;26.49;98030.56;;;;116984;1193;25766;-62
2022/05/08 11:54:30;;;;;;;;;27.50;22.50;;;26.48;98028.25;;;;117002;1194;25344;-58
2022/05/08 11:57:21;;;;;;;;;30.25;28.75;;;26.49;98025.41;;;;117044;1191;24899;-62
2022/05/08 12:00:04;;;;;;;;;22.75;21.50;;;26.50;98023.58;;;;117004;1192;25353;-60
2022/05/08 12:02:43;;;;;;;;;30.00;27.00;;;26.56;98023.93;;;;117070;1191;25789;-62
2022/05/08 12:05:24;;;;;;;;;25.25;22.25;;;26.58;98026.30;;;;117054;1193;24949;-63
2022/05/08 12:07:52;;;;;;;;;29.50;25.75;;;26.56;98023.16;;;;117003;1193;24908;-58
2022/05/08 12:10:29;;;;;;;;;26.25;22.00;;;26.56;98022.05;;;;117056;1193;25363;-67
2022/05/08 12:13:05;;;;;;;;;22.50;19.75;;;26.57;98021.97;;;;117123;1193;25437;-59
2022/05/08 12:15:34;;;;;;;;;25.50;22.00;;;26.58;98020.77;;;;117113;1193;26137;-64
2022/05/08 12:18:03;;;;;;;;;29.25;25.00;;;26.57;98016.23;;;;117035;1194;25454;-65
2022/05/08 12:20:39;;;;;;;;;25.00;22.00;;;26.57;98014.08;;;;117066;1193;25500;-60
2022/05/08 12:23:10;;;;;;;;;34.33;27.33;;;26.58;98010.88;;;;117181;1194;25165;-66
2022/05/08 12:25:41;;;;;;;;;29.00;25.00;;;26.59;98009.71;;;;117214;1192;24989;-58
2022/05/08 12:28:13;;;;;;;;;24.67;23.00;;;26.64;98007.42;;;;117083;1194;25381;-63
2022/05/08 12:30:41;;;;;;;;;26.67;24.00;;;26.64;98010.17;;;;117210;1193;25335;-65
2022/05/08 12:33:09;;;;;;;;;28.50;27.50;;;26.65;98008.30;;;;117059;1193;25698;-59
2022/05/08 12:35:37;;;;;;;;;25.00;22.50;;;26.65;98007.06;;;;117078;1194;24742;-64